Time;durP1;ratioP1;P1;durP2;ratioP2;P2;SDS_P1;SDS_P2;PMS_P1;PMS_P2;Temp;Humidity;BMP_temperature;BMP_pressure;BME280_temperature;BME280_humidity;BME280_pressure;Samples;Min_cycle;Max_cycle;Signal;HPM_P1;HPM_P2
2023/04/07 00:01:18;;;;;;;2.13;1.80;;;;;;;;;;5011855;28;20026;-81
2023/04/07 00:03:45;;;;;;;2.78;2.00;;;;;;;;;;5010309;28;20026;-81
2023/04/07 00:06:14;;;;;;;2.58;1.75;;;;;;;;;;5010081;28;20026;-80
2023/04/07 00:08:40;;;;;;;4.10;1.67;;;;;;;;;;5010585;28;20481;-83
2023/04/07 00:11:10;;;;;;;3.17;2.20;;;;;;;;;;5010773;28;20037;-82
2023/04/07 00:13:35;;;;;;;3.20;2.00;;;;;;;;;;4996137;28;20022;-83
2023/04/07 00:18:53;;;;;;;3.38;2.03;;;;;;;;;;5026263;28;20088;-82
2023/04/07 00:21:26;;;;;;;3.08;1.70;;;;;;;;;;5030558;28;20025;-82
2023/04/07 00:23:52;;;;;;;4.15;2.42;;;;;;;;;;5011731;28;20544;-82
2023/04/07 00:26:17;;;;;;;2.92;2.00;;;;;;;;;;5019886;28;20434;-83
2023/04/07 00:28:44;;;;;;;3.97;2.38;;;;;;;;;;5029380;28;20030;-83
2023/04/07 00:31:09;;;;;;;5.72;2.15;;;;;;;;;;5030074;28;20246;-83
2023/04/07 00:33:35;;;;;;;3.05;1.90;;;;;;;;;;5012252;28;20033;-81
2023/04/07 00:36:01;;;;;;;2.40;1.90;;;;;;;;;;5029577;28;20507;-80
2023/04/07 00:38:27;;;;;;;2.50;1.80;;;;;;;;;;5026815;28;20033;-82
2023/04/07 00:40:58;;;;;;;3.78;2.33;;;;;;;;;;4992351;28;20113;-84
2023/04/07 00:43:24;;;;;;;2.30;1.58;;;;;;;;;;5008469;28;20072;-83
2023/04/07 00:46:00;;;;;;;3.90;1.90;;;;;;;;;;5009724;28;20029;-84
2023/04/07 00:48:26;;;;;;;2.22;1.98;;;;;;;;;;5012263;28;20021;-83
2023/04/07 00:50:55;;;;;;;5.25;2.05;;;;;;;;;;5021103;28;20049;-83
2023/04/07 00:53:26;;;;;;;4.28;2.25;;;;;;;;;;4993011;28;20397;-83
2023/04/07 00:55:52;;;;;;;;;;;;;;;;;;5018653;28;20056;-83
2023/04/07 00:58:20;;;;;;;3.65;2.08;;;;;;;;;;5010403;28;20000;-83
2023/04/07 01:00:49;;;;;;;2.75;1.98;;;;;;;;;;5011030;28;20613;-83
2023/04/07 01:03:18;;;;;;;4.03;2.10;;;;;;;;;;5024031;28;20492;-81
2023/04/07 01:06:02;;;;;;;3.55;2.00;;;;;;;;;;5012447;28;20022;-81
2023/04/07 01:08:37;;;;;;;6.22;2.50;;;;;;;;;;5009226;28;20026;-82
2023/04/07 01:11:18;;;;;;;2.97;1.85;;;;;;;;;;5021384;28;20627;-82
2023/04/07 01:13:49;;;;;;;4.30;2.42;;;;;;;;;;5020226;28;20033;-83
2023/04/07 01:16:19;;;;;;;3.10;2.10;;;;;;;;;;4992324;28;20371;-82
2023/04/07 01:18:47;;;;;;;3.50;2.35;;;;;;;;;;5009406;28;20540;-82
2023/04/07 01:21:15;;;;;;;6.93;2.25;;;;;;;;;;5015123;28;20503;-82
2023/04/07 01:23:41;;;;;;;4.07;1.95;;;;;;;;;;5005857;28;20080;-82
2023/04/07 01:26:17;;;;;;;3.75;2.08;;;;;;;;;;5016030;28;20427;-82
2023/04/07 01:28:43;;;;;;;3.72;1.75;;;;;;;;;;4991867;28;20088;-83
2023/04/07 01:31:10;;;;;;;4.25;2.03;;;;;;;;;;5009190;28;20428;-82
2023/04/07 01:33:36;;;;;;;3.83;2.25;;;;;;;;;;5009173;28;20034;-81
2023/04/07 01:36:03;;;;;;;5.13;2.65;;;;;;;;;;5008967;28;20053;-81
2023/04/07 01:38:29;;;;;;;4.13;2.05;;;;;;;;;;5010027;28;20029;-82
2023/04/07 01:40:57;;;;;;;3.33;2.08;;;;;;;;;;5008744;28;20026;-82
2023/04/07 01:43:24;;;;;;;2.42;2.08;;;;;;;;;;5009043;28;20077;-83
2023/04/07 01:45:51;;;;;;;3.15;1.95;;;;;;;;;;5014885;28;20048;-82
2023/04/07 01:48:17;;;;;;;3.65;2.30;;;;;;;;;;5014006;28;20026;-82
2023/04/07 01:50:44;;;;;;;3.40;2.28;;;;;;;;;;5009306;28;20038;-82
2023/04/07 01:53:11;;;;;;;3.60;1.85;;;;;;;;;;5005076;28;20053;-82
2023/04/07 01:55:37;;;;;;;4.28;2.35;;;;;;;;;;5018970;28;20183;-82
2023/04/07 01:58:05;;;;;;;3.95;2.20;;;;;;;;;;4997024;28;20396;-82
2023/04/07 02:00:31;;;;;;;3.35;2.10;;;;;;;;;;5028576;28;20036;-82
2023/04/07 02:02:59;;;;;;;2.78;2.00;;;;;;;;;;4996089;28;20117;-80
2023/04/07 02:05:27;;;;;;;4.90;1.90;;;;;;;;;;5005264;28;20018;-82
2023/04/07 02:07:57;;;;;;;3.17;2.45;;;;;;;;;;5019841;28;20071;-83
2023/04/07 02:10:25;;;;;;;4.05;2.10;;;;;;;;;;5006207;28;20029;-82
2023/04/07 02:12:51;;;;;;;2.58;1.98;;;;;;;;;;5019246;28;20029;-83
2023/04/07 02:15:18;;;;;;;5.07;2.10;;;;;;;;;;5026380;28;20040;-83
2023/04/07 02:17:47;;;;;;;8.10;2.17;;;;;;;;;;5009491;28;20024;-83
2023/04/07 02:20:15;;;;;;;3.58;1.95;;;;;;;;;;5028500;28;20064;-83
2023/04/07 02:22:43;;;;;;;3.78;2.50;;;;;;;;;;5028198;28;20099;-82
2023/04/07 02:25:22;;;;;;;1.98;1.60;;;;;;;;;;5027532;28;20033;-83
2023/04/07 02:27:48;;;;;;;4.20;2.05;;;;;;;;;;5027803;28;20033;-81
2023/04/07 02:30:14;;;;;;;2.88;2.05;;;;;;;;;;5025771;28;20043;-80
2023/04/07 02:32:40;;;;;;;3.67;2.20;;;;;;;;;;5008624;28;20396;-82
2023/04/07 02:35:07;;;;;;;5.50;2.30;;;;;;;;;;5020873;28;20038;-81
2023/04/07 02:37:33;;;;;;;3.88;2.00;;;;;;;;;;5005401;28;20081;-82
2023/04/07 02:39:59;;;;;;;4.15;2.13;;;;;;;;;;5008588;28;20481;-82
2023/04/07 02:42:25;;;;;;;2.17;1.67;;;;;;;;;;5023938;28;20595;-82
2023/04/07 02:44:51;;;;;;;3.70;1.80;;;;;;;;;;5027688;28;20023;-82
2023/04/07 02:47:17;;;;;;;7.20;1.95;;;;;;;;;;5005601;28;20045;-82
2023/04/07 02:49:43;;;;;;;5.68;2.55;;;;;;;;;;5022028;28;20033;-82
2023/04/07 02:52:09;;;;;;;2.80;1.85;;;;;;;;;;5027890;28;20025;-81
2023/04/07 02:54:35;;;;;;;4.07;2.05;;;;;;;;;;5015369;28;20034;-83
2023/04/07 02:57:01;;;;;;;5.32;2.25;;;;;;;;;;5025985;28;20083;-80
2023/04/07 02:59:27;;;;;;;2.50;1.90;;;;;;;;;;5030713;28;20100;-81
2023/04/07 03:01:53;;;;;;;3.80;1.77;;;;;;;;;;5026827;28;20423;-81
2023/04/07 03:04:19;;;;;;;3.38;2.03;;;;;;;;;;5018460;28;20065;-82
2023/04/07 03:06:45;;;;;;;3.22;1.88;;;;;;;;;;5012247;28;20540;-83
2023/04/07 03:09:14;;;;;;;3.22;2.08;;;;;;;;;;5011888;28;20026;-82
2023/04/07 03:11:43;;;;;;;2.30;1.80;;;;;;;;;;5014440;28;20030;-83
2023/04/07 03:14:09;;;;;;;2.90;1.70;;;;;;;;;;5020119;28;20087;-83
2023/04/07 03:16:35;;;;;;;3.95;1.80;;;;;;;;;;5010596;28;20026;-83
2023/04/07 03:19:00;;;;;;;2.90;2.05;;;;;;;;;;5025216;28;20025;-83
2023/04/07 03:21:27;;;;;;;3.28;2.05;;;;;;;;;;5011871;28;20081;-83
2023/04/07 03:23:54;;;;;;;2.83;1.92;;;;;;;;;;5011852;28;20481;-81
2023/04/07 03:26:20;;;;;;;1.95;1.77;;;;;;;;;;5022918;28;20057;-81
2023/04/07 03:28:46;;;;;;;2.92;1.52;;;;;;;;;;5016386;28;20018;-80
2023/04/07 03:31:12;;;;;;;3.50;1.92;;;;;;;;;;5011037;28;20230;-80
2023/04/07 03:33:38;;;;;;;2.45;1.45;;;;;;;;;;5007762;28;20872;-80
2023/04/07 03:36:05;;;;;;;2.75;1.90;;;;;;;;;;5017973;28;20113;-80
2023/04/07 03:38:31;;;;;;;3.60;2.03;;;;;;;;;;5022325;28;20124;-80
2023/04/07 03:40:57;;;;;;;2.95;1.90;;;;;;;;;;5009348;28;20065;-82
2023/04/07 03:43:23;;;;;;;2.88;1.65;;;;;;;;;;5013881;28;20048;-81
2023/04/07 03:45:49;;;;;;;4.43;2.00;;;;;;;;;;5011065;28;20117;-81
2023/04/07 03:48:15;;;;;;;2.25;1.50;;;;;;;;;;5010574;28;20404;-81
2023/04/07 03:50:41;;;;;;;6.15;2.13;;;;;;;;;;5010962;28;20026;-82
2023/04/07 03:53:08;;;;;;;3.08;1.90;;;;;;;;;;5010411;28;20084;-80
2023/04/07 03:55:34;;;;;;;3.97;2.38;;;;;;;;;;5025390;28;20480;-80
2023/04/07 03:58:00;;;;;;;2.92;2.00;;;;;;;;;;5030357;28;20026;-83
2023/04/07 04:00:26;;;;;;;5.88;1.90;;;;;;;;;;5030699;28;20127;-82
2023/04/07 04:02:52;;;;;;;3.00;1.85;;;;;;;;;;5015908;28;20113;-84
2023/04/07 04:05:18;;;;;;;3.35;1.80;;;;;;;;;;5014150;28;20038;-83
2023/04/07 04:07:44;;;;;;;2.55;1.67;;;;;;;;;;5010909;28;20030;-81
2023/04/07 04:10:10;;;;;;;3.08;1.52;;;;;;;;;;5007533;28;20076;-81
2023/04/07 04:12:36;;;;;;;2.53;1.70;;;;;;;;;;5010635;28;20030;-81
2023/04/07 04:15:02;;;;;;;2.28;1.70;;;;;;;;;;5013753;28;20754;-81
2023/04/07 04:17:28;;;;;;;3.20;1.80;;;;;;;;;;5014950;28;20738;-81
2023/04/07 04:19:55;;;;;;;2.53;1.80;;;;;;;;;;5010632;28;20018;-82
2023/04/07 04:22:21;;;;;;;5.45;2.33;;;;;;;;;;5012634;28;20033;-80
2023/04/07 04:24:47;;;;;;;2.67;1.90;;;;;;;;;;5010087;28;20026;-81
2023/04/07 04:27:12;;;;;;;2.38;1.80;;;;;;;;;;5025727;28;20688;-83
2023/04/07 04:29:38;;;;;;;2.90;1.83;;;;;;;;;;5020082;28;20691;-83
2023/04/07 04:32:04;;;;;;;5.35;2.00;;;;;;;;;;5015348;28;20465;-83
2023/04/07 04:34:30;;;;;;;4.38;1.83;;;;;;;;;;5009535;28;20489;-81
2023/04/07 04:36:56;;;;;;;4.05;1.98;;;;;;;;;;5012839;28;20030;-82
2023/04/07 04:39:22;;;;;;;2.45;1.70;;;;;;;;;;5009877;28;20029;-83
2023/04/07 04:41:48;;;;;;;2.15;1.45;;;;;;;;;;5017319;28;20044;-83
2023/04/07 04:44:14;;;;;;;3.42;1.38;;;;;;;;;;4988034;28;20033;-82
2023/04/07 04:46:40;;;;;;;2.22;1.35;;;;;;;;;;4990515;28;20105;-82
2023/04/07 04:49:06;;;;;;;2.92;1.55;;;;;;;;;;4989994;28;20084;-83
2023/04/07 04:51:32;;;;;;;2.28;1.50;;;;;;;;;;4995896;28;20029;-82
2023/04/07 04:53:59;;;;;;;1.98;1.38;;;;;;;;;;4991320;28;20030;-83
2023/04/07 04:56:25;;;;;;;2.17;1.42;;;;;;;;;;5003588;28;20037;-83
2023/04/07 04:58:51;;;;;;;1.92;1.70;;;;;;;;;;5008733;28;20432;-83
2023/04/07 05:01:17;;;;;;;5.03;1.60;;;;;;;;;;5003721;28;20092;-83
2023/04/07 05:03:43;;;;;;;2.75;1.70;;;;;;;;;;5008513;28;20029;-82
2023/04/07 05:06:09;;;;;;;2.72;1.88;;;;;;;;;;5007396;28;20018;-81
2023/04/07 05:08:35;;;;;;;3.38;1.63;;;;;;;;;;5009376;28;20100;-83
2023/04/07 05:11:01;;;;;;;2.95;1.42;;;;;;;;;;5010007;28;20403;-83
2023/04/07 05:13:29;;;;;;;1.77;1.27;;;;;;;;;;5000554;28;20023;-83
2023/04/07 05:15:55;;;;;;;2.53;1.55;;;;;;;;;;4991391;28;20038;-83
2023/04/07 05:18:21;;;;;;;1.85;1.65;;;;;;;;;;4995109;28;20057;-83
2023/04/07 05:20:50;;;;;;;2.55;1.45;;;;;;;;;;4991738;28;20041;-84
2023/04/07 05:23:16;;;;;;;2.55;1.70;;;;;;;;;;4998702;28;20022;-84
2023/04/07 05:25:42;;;;;;;2.88;1.60;;;;;;;;;;5004338;28;20481;-84
2023/04/07 05:28:08;;;;;;;2.38;1.48;;;;;;;;;;4999304;28;20036;-84
2023/04/07 05:30:34;;;;;;;2.85;1.73;;;;;;;;;;5007092;28;20045;-83
2023/04/07 05:33:06;;;;;;;2.60;1.73;;;;;;;;;;4990218;28;20481;-84
2023/04/07 05:35:32;;;;;;;4.28;1.50;;;;;;;;;;4987962;28;20034;-83
2023/04/07 05:37:58;;;;;;;2.00;1.55;;;;;;;;;;4993765;28;20045;-84
2023/04/07 05:40:24;;;;;;;2.50;1.50;;;;;;;;;;4992186;28;20042;-84
2023/04/07 05:42:50;;;;;;;2.83;1.60;;;;;;;;;;5000548;28;20112;-83
2023/04/07 05:45:16;;;;;;;2.78;1.83;;;;;;;;;;5006139;28;20042;-80
2023/04/07 05:47:42;;;;;;;4.68;1.60;;;;;;;;;;5008820;28;20036;-81
2023/04/07 05:50:11;;;;;;;3.50;1.70;;;;;;;;;;5010432;28;20161;-83
2023/04/07 05:52:36;;;;;;;1.70;1.30;;;;;;;;;;5009105;28;20255;-83
2023/04/07 05:55:03;;;;;;;3.03;1.75;;;;;;;;;;5013280;28;20018;-83
2023/04/07 05:57:29;;;;;;;3.08;1.80;;;;;;;;;;5018829;28;20052;-84
2023/04/07 05:59:55;;;;;;;2.47;1.55;;;;;;;;;;5022774;28;20141;-84
2023/04/07 06:02:20;;;;;;;3.10;1.50;;;;;;;;;;5028066;28;20514;-81
2023/04/07 06:04:46;;;;;;;2.40;1.80;;;;;;;;;;5026451;28;20030;-83
2023/04/07 06:07:12;;;;;;;2.90;1.48;;;;;;;;;;5028500;28;20134;-84
2023/04/07 06:09:38;;;;;;;2.05;1.35;;;;;;;;;;5022552;28;20021;-84
2023/04/07 06:12:05;;;;;;;1.98;1.30;;;;;;;;;;5009180;28;20404;-84
2023/04/07 06:14:31;;;;;;;2.10;1.60;;;;;;;;;;5007521;28;20029;-83
2023/04/07 06:16:57;;;;;;;1.75;1.33;;;;;;;;;;5008786;28;20051;-84
2023/04/07 06:19:23;;;;;;;2.45;1.50;;;;;;;;;;5009657;28;20042;-84
2023/04/07 06:22:10;;;;;;;3.72;1.40;;;;;;;;;;5028315;28;20026;-82
2023/04/07 06:24:36;;;;;;;3.22;1.10;;;;;;;;;;5001336;28;20029;-82
2023/04/07 06:27:02;;;;;;;1.70;1.30;;;;;;;;;;5010067;28;20014;-83
2023/04/07 06:29:28;;;;;;;3.22;1.63;;;;;;;;;;5026799;28;20082;-84
2023/04/07 06:31:55;;;;;;;1.63;1.13;;;;;;;;;;5015099;28;20038;-83
2023/04/07 06:34:21;;;;;;;2.78;1.63;;;;;;;;;;5018382;28;20033;-83
2023/04/07 06:36:47;;;;;;;2.10;1.40;;;;;;;;;;5031641;28;20434;-84
2023/04/07 06:39:13;;;;;;;1.58;1.23;;;;;;;;;;5025802;28;20022;-83
2023/04/07 06:41:41;;;;;;;2.60;1.55;;;;;;;;;;5011840;28;20520;-83
2023/04/07 06:44:07;;;;;;;2.55;1.80;;;;;;;;;;4989100;28;20245;-83
2023/04/07 06:46:33;;;;;;;1.48;1.38;;;;;;;;;;4993050;28;20022;-84
2023/04/07 06:49:00;;;;;;;2.45;1.33;;;;;;;;;;4996721;28;20021;-83
2023/04/07 06:51:26;;;;;;;1.65;1.38;;;;;;;;;;5010557;28;20049;-82
2023/04/07 06:53:52;;;;;;;2.33;1.60;;;;;;;;;;5005394;28;20034;-84
2023/04/07 06:56:18;;;;;;;2.92;1.48;;;;;;;;;;5004613;28;20077;-84
2023/04/07 06:58:44;;;;;;;1.80;1.30;;;;;;;;;;5008763;28;20037;-85
2023/04/07 07:01:10;;;;;;;4.22;1.48;;;;;;;;;;4996269;28;20038;-84
2023/04/07 07:03:36;;;;;;;2.10;1.70;;;;;;;;;;5012715;28;20099;-84
2023/04/07 07:06:02;;;;;;;3.03;1.40;;;;;;;;;;5011001;28;20034;-84
2023/04/07 07:08:29;;;;;;;2.45;1.40;;;;;;;;;;5004948;28;20409;-84
2023/04/07 07:11:01;;;;;;;2.00;1.52;;;;;;;;;;5004453;28;20034;-84
2023/04/07 07:13:27;;;;;;;2.00;1.48;;;;;;;;;;4991285;28;20113;-84
2023/04/07 07:15:54;;;;;;;2.85;1.38;;;;;;;;;;5006606;28;20160;-84
2023/04/07 07:18:20;;;;;;;2.42;1.33;;;;;;;;;;5000062;28;20473;-82
2023/04/07 07:20:46;;;;;;;3.75;2.08;;;;;;;;;;4993013;28;20038;-81
2023/04/07 07:23:12;;;;;;;2.50;1.42;;;;;;;;;;4992094;28;20580;-84
2023/04/07 07:25:38;;;;;;;1.67;1.45;;;;;;;;;;5000333;28;20037;-83
2023/04/07 07:28:04;;;;;;;2.25;1.17;;;;;;;;;;5010217;28;20152;-84
2023/04/07 07:30:30;;;;;;;2.00;1.30;;;;;;;;;;5011325;28;20037;-84
2023/04/07 07:32:56;;;;;;;1.63;1.50;;;;;;;;;;5010633;28;20026;-84
2023/04/07 07:35:25;;;;;;;1.77;1.30;;;;;;;;;;4999538;28;20037;-84
2023/04/07 07:37:51;;;;;;;2.33;1.30;;;;;;;;;;5000695;28;20022;-83
2023/04/07 07:40:18;;;;;;;1.67;1.13;;;;;;;;;;5004190;28;20034;-84
2023/04/07 07:42:45;;;;;;;1.67;1.27;;;;;;;;;;5009321;28;20104;-84
2023/04/07 07:45:12;;;;;;;1.80;1.48;;;;;;;;;;5008239;28;20018;-82
2023/04/07 07:47:38;;;;;;;2.80;1.75;;;;;;;;;;5009026;28;20029;-82
2023/04/07 07:50:07;;;;;;;1.65;1.35;;;;;;;;;;4996231;28;20026;-83
2023/04/07 07:52:33;;;;;;;2.47;1.30;;;;;;;;;;4991875;28;20030;-83
2023/04/07 07:54:59;;;;;;;2.80;1.35;;;;;;;;;;4995665;28;20032;-84
2023/04/07 07:57:25;;;;;;;3.05;1.60;;;;;;;;;;5006819;28;20030;-84
2023/04/07 07:59:53;;;;;;;3.13;1.63;;;;;;;;;;4994567;28;20033;-83
2023/04/07 08:02:28;;;;;;;1.95;1.15;;;;;;;;;;4989068;28;20092;-83
2023/04/07 08:04:54;;;;;;;3.50;1.05;;;;;;;;;;4976682;28;20133;-83
2023/04/07 08:07:20;;;;;;;2.55;1.55;;;;;;;;;;4993280;28;20080;-81
2023/04/07 08:09:46;;;;;;;1.75;1.33;;;;;;;;;;4989358;28;20023;-81
2023/04/07 08:12:12;;;;;;;1.88;1.35;;;;;;;;;;4995986;28;20508;-81
2023/04/07 08:14:38;;;;;;;2.83;1.30;;;;;;;;;;5003341;28;20044;-81
2023/04/07 08:17:07;;;;;;;1.75;1.10;;;;;;;;;;5010362;28;20038;-81
2023/04/07 08:19:33;;;;;;;2.38;1.27;;;;;;;;;;4999251;28;20090;-80
2023/04/07 08:21:59;;;;;;;1.98;1.30;;;;;;;;;;4990742;28;20027;-83
2023/04/07 08:24:25;;;;;;;1.38;1.17;;;;;;;;;;5000010;28;20022;-82
2023/04/07 08:26:51;;;;;;;2.85;1.40;;;;;;;;;;5007460;28;20076;-83
2023/04/07 08:29:17;;;;;;;2.17;1.05;;;;;;;;;;5009692;28;20013;-83
2023/04/07 08:31:43;;;;;;;2.28;1.25;;;;;;;;;;5010432;28;20543;-84
2023/04/07 08:34:09;;;;;;;1.20;1.10;;;;;;;;;;4992507;28;20441;-83
2023/04/07 08:36:35;;;;;;;4.85;1.35;;;;;;;;;;5006415;28;20392;-84
2023/04/07 08:39:04;;;;;;;2.50;1.33;;;;;;;;;;5009666;28;20021;-82
2023/04/07 08:41:33;;;;;;;1.85;1.25;;;;;;;;;;5002754;28;20030;-82
2023/04/07 08:44:01;;;;;;;2.05;1.23;;;;;;;;;;5029216;28;20099;-82
2023/04/07 08:46:27;;;;;;;2.78;1.25;;;;;;;;;;5011711;28;20522;-83
2023/04/07 08:48:55;;;;;;;1.10;1.00;;;;;;;;;;5027963;28;20041;-82
2023/04/07 08:51:27;;;;;;;1.75;1.40;;;;;;;;;;5019539;28;20022;-83
2023/04/07 08:53:53;;;;;;;2.20;1.27;;;;;;;;;;5018883;28;20039;-84
2023/04/07 08:56:20;;;;;;;1.90;1.10;;;;;;;;;;5027046;28;20028;-83
2023/04/07 08:58:47;;;;;;;1.52;1.30;;;;;;;;;;5009482;28;20034;-79
2023/04/07 09:01:14;;;;;;;2.85;1.23;;;;;;;;;;5010112;28;20034;-76
2023/04/07 09:03:42;;;;;;;2.10;1.52;;;;;;;;;;5028715;28;20108;-78
2023/04/07 09:06:10;;;;;;;1.60;1.10;;;;;;;;;;5010727;28;20035;-72
2023/04/07 09:08:35;;;;;;;0.93;0.82;;;;;;;;;;5008869;28;20040;-71
2023/04/07 09:11:01;;;;;;;2.05;1.42;;;;;;;;;;5009489;28;20034;-71
2023/04/07 09:13:27;;;;;;;2.67;1.17;;;;;;;;;;5010672;28;20700;-71
2023/04/07 09:15:54;;;;;;;2.33;1.42;;;;;;;;;;5019199;28;20029;-71
2023/04/07 09:18:20;;;;;;;1.40;1.00;;;;;;;;;;5015565;28;20026;-72
2023/04/07 09:21:00;;;;;;;0.95;0.90;;;;;;;;;;5013217;28;20065;-71
2023/04/07 09:23:29;;;;;;;1.65;1.35;;;;;;;;;;5013192;28;20683;-71
2023/04/07 09:25:58;;;;;;;1.20;0.93;;;;;;;;;;5017848;28;20086;-71
2023/04/07 09:28:24;;;;;;;1.45;1.02;;;;;;;;;;5028070;28;20695;-71
2023/04/07 09:30:53;;;;;;;1.45;1.10;;;;;;;;;;5023082;28;20029;-71
2023/04/07 09:33:26;;;;;;;2.08;0.93;;;;;;;;;;5016675;28;20030;-71
2023/04/07 09:35:52;;;;;;;2.08;1.30;;;;;;;;;;5018159;28;20022;-71
2023/04/07 09:38:18;;;;;;;2.33;1.17;;;;;;;;;;5026126;28;20136;-72
2023/04/07 09:40:44;;;;;;;1.83;0.90;;;;;;;;;;5014014;28;20117;-72
2023/04/07 09:43:17;;;;;;;1.70;1.27;;;;;;;;;;5020751;28;20046;-71
2023/04/07 09:45:43;;;;;;;1.67;1.02;;;;;;;;;;5018860;28;20069;-71
2023/04/07 09:48:20;;;;;;;0.95;0.88;;;;;;;;;;5025665;28;20484;-72
2023/04/07 09:50:50;;;;;;;2.20;1.23;;;;;;;;;;5027860;28;20487;-71
2023/04/07 09:53:18;;;;;;;1.52;1.02;;;;;;;;;;5025691;28;20033;-71
2023/04/07 09:55:44;;;;;;;0.90;0.80;;;;;;;;;;5027893;28;20480;-71
2023/04/07 09:58:14;;;;;;;0.95;0.90;;;;;;;;;;5010074;28;20061;-71
2023/04/07 10:00:41;;;;;;;2.03;1.30;;;;;;;;;;5008168;28;20026;-71
2023/04/07 10:03:07;;;;;;;1.40;1.10;;;;;;;;;;5012178;28;20018;-72
2023/04/07 10:05:35;;;;;;;0.93;0.82;;;;;;;;;;5018048;28;20057;-72
2023/04/07 10:08:02;;;;;;;1.05;0.85;;;;;;;;;;5023999;28;20153;-71
2023/04/07 10:10:28;;;;;;;1.58;0.90;;;;;;;;;;5027427;28;20030;-70
2023/04/07 10:12:57;;;;;;;2.28;1.20;;;;;;;;;;5026055;28;20140;-72
2023/04/07 10:15:24;;;;;;;0.90;0.90;;;;;;;;;;5023785;28;20392;-71
2023/04/07 10:17:50;;;;;;;1.55;0.93;;;;;;;;;;5025469;28;20502;-71
2023/04/07 10:20:19;;;;;;;2.10;1.25;;;;;;;;;;5027307;28;20053;-71
2023/04/07 10:22:48;;;;;;;0.93;0.85;;;;;;;;;;5025984;28;20033;-73
2023/04/07 10:25:16;;;;;;;1.77;1.00;;;;;;;;;;5022073;28;20100;-71
2023/04/07 10:27:54;;;;;;;2.55;1.30;;;;;;;;;;5021502;28;20529;-71
2023/04/07 10:30:40;;;;;;;0.93;0.73;;;;;;;;;;5009929;28;20026;-71
2023/04/07 10:33:06;;;;;;;1.48;1.00;;;;;;;;;;5007648;28;20049;-72
2023/04/07 10:35:51;;;;;;;0.98;0.90;;;;;;;;;;5011795;28;20064;-72
2023/04/07 10:38:17;;;;;;;2.15;1.10;;;;;;;;;;5023519;28;20121;-72
2023/04/07 10:40:43;;;;;;;0.80;0.80;;;;;;;;;;5022229;28;20108;-71
2023/04/07 10:43:13;;;;;;;1.58;1.00;;;;;;;;;;5025066;28;20061;-71
2023/04/07 10:45:45;;;;;;;1.08;0.98;;;;;;;;;;5027061;28;20029;-71
2023/04/07 10:48:12;;;;;;;1.27;0.90;;;;;;;;;;5026805;28;20026;-71
2023/04/07 10:50:38;;;;;;;0.95;0.80;;;;;;;;;;5021885;28;20034;-71
2023/04/07 10:53:08;;;;;;;1.20;0.80;;;;;;;;;;5022763;28;20087;-71
2023/04/07 10:55:42;;;;;;;1.08;0.98;;;;;;;;;;5003014;28;20231;-75
2023/04/07 10:58:15;;;;;;;1.73;1.10;;;;;;;;;;5010881;28;20076;-72
2023/04/07 11:00:41;;;;;;;1.23;1.02;;;;;;;;;;5007203;28;20026;-72
2023/04/07 11:03:13;;;;;;;1.30;1.08;;;;;;;;;;5023218;28;20469;-72
2023/04/07 11:05:39;;;;;;;1.92;1.23;;;;;;;;;;5026560;28;20379;-72
2023/04/07 11:08:06;;;;;;;0.60;0.60;;;;;;;;;;5025319;28;20101;-72
2023/04/07 11:10:33;;;;;;;1.63;1.00;;;;;;;;;;5021804;28;20105;-72
2023/04/07 11:13:09;;;;;;;3.40;0.88;;;;;;;;;;5007486;28;20029;-72
2023/04/07 11:15:36;;;;;;;2.10;1.48;;;;;;;;;;5007032;28;20025;-72
2023/04/07 11:18:18;;;;;;;1.23;0.95;;;;;;;;;;5007432;28;20026;-72
2023/04/07 11:20:45;;;;;;;2.05;1.23;;;;;;;;;;5010852;28;20021;-71
2023/04/07 11:23:12;;;;;;;1.27;0.95;;;;;;;;;;5010538;28;20020;-72
2023/04/07 11:25:42;;;;;;;1.88;1.10;;;;;;;;;;5015930;28;20018;-71
2023/04/07 11:28:10;;;;;;;1.00;0.90;;;;;;;;;;5031907;28;20081;-72
2023/04/07 11:30:36;;;;;;;1.80;1.30;;;;;;;;;;5029166;28;20404;-72
2023/04/07 11:33:03;;;;;;;1.42;1.17;;;;;;;;;;5031112;28;20029;-72
2023/04/07 11:35:29;;;;;;;2.28;1.30;;;;;;;;;;5030322;28;20116;-72
2023/04/07 11:37:59;;;;;;;1.55;1.20;;;;;;;;;;5030523;28;20034;-71
2023/04/07 11:40:36;;;;;;;1.42;0.88;;;;;;;;;;5029600;28;20022;-72
2023/04/07 11:43:02;;;;;;;2.15;1.23;;;;;;;;;;5017634;28;20563;-72
2023/04/07 11:45:28;;;;;;;2.00;0.98;;;;;;;;;;5010910;28;20037;-71
2023/04/07 11:47:54;;;;;;;1.63;1.00;;;;;;;;;;5017438;28;20026;-71
2023/04/07 11:50:39;;;;;;;1.50;1.20;;;;;;;;;;5022199;28;20022;-72
2023/04/07 11:53:06;;;;;;;1.00;0.90;;;;;;;;;;5023696;28;20025;-72
2023/04/07 11:55:31;;;;;;;1.85;1.20;;;;;;;;;;5018468;28;20021;-72
2023/04/07 11:58:05;;;;;;;1.55;1.00;;;;;;;;;;5026376;28;20072;-71
2023/04/07 12:00:31;;;;;;;1.17;0.88;;;;;;;;;;5010783;28;20021;-72
2023/04/07 12:02:57;;;;;;;1.20;1.00;;;;;;;;;;5027261;28;20652;-72
2023/04/07 12:05:23;;;;;;;1.48;0.90;;;;;;;;;;5017911;28;20025;-72
2023/04/07 12:07:54;;;;;;;4.13;1.02;;;;;;;;;;5009945;28;20546;-72
2023/04/07 12:10:21;;;;;;;1.42;0.93;;;;;;;;;;5009994;28;20034;-72
2023/04/07 12:12:47;;;;;;;0.90;0.90;;;;;;;;;;5010678;28;20075;-72
2023/04/07 12:15:14;;;;;;;1.83;0.90;;;;;;;;;;5017123;28;20026;-72
2023/04/07 12:17:44;;;;;;;1.35;0.80;;;;;;;;;;5010250;28;20454;-72
2023/04/07 12:20:11;;;;;;;2.50;1.08;;;;;;;;;;5009544;28;20030;-71
2023/04/07 12:22:36;;;;;;;1.08;0.90;;;;;;;;;;5022780;28;20061;-73
2023/04/07 12:25:02;;;;;;;0.93;0.90;;;;;;;;;;5025352;28;20453;-71
2023/04/07 12:27:29;;;;;;;1.00;0.88;;;;;;;;;;5009337;28;20076;-72
2023/04/07 12:29:55;;;;;;;1.35;1.00;;;;;;;;;;5017985;28;20029;-72
2023/04/07 12:32:21;;;;;;;1.33;1.10;;;;;;;;;;5024149;28;20040;-72
2023/04/07 12:34:47;;;;;;;1.42;0.93;;;;;;;;;;5029140;28;20025;-71
2023/04/07 12:37:13;;;;;;;1.58;1.17;;;;;;;;;;5012467;28;20026;-73
2023/04/07 12:39:39;;;;;;;1.50;0.90;;;;;;;;;;5009348;28;20021;-72
2023/04/07 12:42:06;;;;;;;0.93;0.70;;;;;;;;;;5008920;28;20444;-72
2023/04/07 12:44:32;;;;;;;2.85;0.82;;;;;;;;;;5008874;28;20037;-72
2023/04/07 12:46:58;;;;;;;1.40;0.90;;;;;;;;;;5009451;28;20022;-72
2023/04/07 12:49:24;;;;;;;0.77;0.77;;;;;;;;;;5028011;28;20039;-72
2023/04/07 12:51:50;;;;;;;1.90;1.13;;;;;;;;;;5028583;28;20393;-71
2023/04/07 12:54:16;;;;;;;1.27;0.82;;;;;;;;;;5028921;28;20052;-72
2023/04/07 12:56:42;;;;;;;1.13;0.82;;;;;;;;;;5022628;28;20061;-72
2023/04/07 12:59:08;;;;;;;1.10;0.95;;;;;;;;;;5024813;28;20643;-72
2023/04/07 13:01:35;;;;;;;1.23;0.80;;;;;;;;;;5008231;28;20041;-73
2023/04/07 13:04:02;;;;;;;0.98;0.88;;;;;;;;;;5025144;28;20057;-72
2023/04/07 13:06:27;;;;;;;0.70;0.70;;;;;;;;;;5025281;28;20029;-71
2023/04/07 13:08:54;;;;;;;0.77;0.77;;;;;;;;;;5021481;28;20036;-72
2023/04/07 13:11:20;;;;;;;0.60;0.60;;;;;;;;;;5017889;28;20110;-72
2023/04/07 13:13:46;;;;;;;0.95;0.80;;;;;;;;;;5028574;28;20205;-71
2023/04/07 13:16:12;;;;;;;1.05;0.93;;;;;;;;;;5023532;28;20469;-72
2023/04/07 13:18:38;;;;;;;1.40;1.00;;;;;;;;;;5019457;28;20033;-72
2023/04/07 13:21:04;;;;;;;1.02;0.82;;;;;;;;;;5028328;28;20022;-73
2023/04/07 13:23:33;;;;;;;0.60;0.60;;;;;;;;;;5022180;28;20031;-73
2023/04/07 13:25:59;;;;;;;1.10;0.80;;;;;;;;;;5016809;28;20017;-73
2023/04/07 13:28:25;;;;;;;0.70;0.70;;;;;;;;;;5014819;28;20372;-73
2023/04/07 13:30:51;;;;;;;1.20;0.82;;;;;;;;;;5025561;28;20484;-72
2023/04/07 13:33:17;;;;;;;1.05;0.70;;;;;;;;;;5015386;28;20485;-72
2023/04/07 13:35:43;;;;;;;1.35;0.90;;;;;;;;;;5016229;28;20400;-72
2023/04/07 13:38:09;;;;;;;1.45;1.02;;;;;;;;;;5027840;28;20037;-74
2023/04/07 13:40:35;;;;;;;1.10;0.60;;;;;;;;;;5027566;28;20034;-72
2023/04/07 13:43:01;;;;;;;2.20;1.40;;;;;;;;;;5009880;28;20440;-73
2023/04/07 13:45:27;;;;;;;1.20;1.10;;;;;;;;;;4999412;28;20042;-73
2023/04/07 13:47:53;;;;;;;1.25;1.13;;;;;;;;;;5001892;28;20122;-72
2023/04/07 13:50:22;;;;;;;0.68;0.68;;;;;;;;;;5007934;28;20105;-74
2023/04/07 13:52:48;;;;;;;1.15;0.82;;;;;;;;;;5007448;28;20028;-72
2023/04/07 13:55:15;;;;;;;0.70;0.65;;;;;;;;;;5008192;28;20022;-73
2023/04/07 13:57:41;;;;;;;0.68;0.63;;;;;;;;;;5004022;28;20018;-72
2023/04/07 14:00:07;;;;;;;2.03;0.85;;;;;;;;;;5003627;28;20030;-73
2023/04/07 14:02:34;;;;;;;1.08;0.80;;;;;;;;;;5006378;28;20432;-72
2023/04/07 14:05:00;;;;;;;0.80;0.77;;;;;;;;;;5000737;28;20034;-72
2023/04/07 14:07:26;;;;;;;0.82;0.70;;;;;;;;;;4999185;28;20385;-71
2023/04/07 14:09:53;;;;;;;0.73;0.70;;;;;;;;;;4994524;28;20096;-72
2023/04/07 14:12:20;;;;;;;0.57;0.57;;;;;;;;;;4987846;28;20292;-72
2023/04/07 14:14:50;;;;;;;0.95;0.80;;;;;;;;;;5007308;28;20025;-72
2023/04/07 14:17:16;;;;;;;3.80;0.80;;;;;;;;;;5007750;28;20036;-72
2023/04/07 14:19:43;;;;;;;0.57;0.50;;;;;;;;;;5003698;28;20119;-72
2023/04/07 14:22:09;;;;;;;0.95;0.82;;;;;;;;;;5007447;28;20030;-72
2023/04/07 14:24:35;;;;;;;2.33;0.80;;;;;;;;;;5005471;28;20030;-71
2023/04/07 14:27:02;;;;;;;1.10;0.98;;;;;;;;;;5006432;28;20029;-73
2023/04/07 14:29:28;;;;;;;0.50;0.50;;;;;;;;;;5002610;28;20072;-73
2023/04/07 14:31:55;;;;;;;1.02;0.75;;;;;;;;;;5006480;28;20030;-73
2023/04/07 14:34:21;;;;;;;0.95;0.88;;;;;;;;;;4988827;28;20051;-73
2023/04/07 14:36:57;;;;;;;0.70;0.55;;;;;;;;;;4987941;28;20053;-73
2023/04/07 14:39:24;;;;;;;1.23;0.98;;;;;;;;;;5006955;28;20026;-73
2023/04/07 14:41:50;;;;;;;3.25;0.60;;;;;;;;;;4998854;28;20504;-73
2023/04/07 14:44:16;;;;;;;0.77;0.77;;;;;;;;;;4999544;28;20097;-73
2023/04/07 14:46:42;;;;;;;0.50;0.50;;;;;;;;;;4996523;28;20548;-72